Williamsville, Virginia
Current Conditions -  °F | °C
As of 8:55 PM on Thursday 18 Dec 2014 (Local Time) from KHSP Reporting Station
Scattered Clouds Scattered Clouds  
Wind Chill: 15°   Ceiling: Unl
Heat Index: 27°   Visibility: 10mi
Dew Point: 18°   Wind: 17mph
Humidity: 69%   Direction: 280°W
Pressure: 29.96"   Gusts: NA
Location:  38.2°N, 79.57°W
Report Text: KHSP 190155Z AUTO 28015KT 10SM SCT055 M03/M08 A2996 RMK AO2 T10271077
Loading
Personal Weather Stations






























Interactive Weather Map New forecast layout! Learn more

10-Day Weather Forecast

Advertisements
Track Severe Weather on mobile